Terminal Aerodrome Forecast
Issued by NWS

Home | Current Version | Previous Version | Graphics & Text | Print | Product List | Glossary On
Versions: 1 2 3 4 5 6 7 8 9 10 11 12 13 14 15 16 17 18 19 20 21
000
FTUS42 KMHX 101100 CCA
TAFPGV
TAF COR
KPGV 101150Z 1012/1112 22005KT P6SM VCTS SCT030 BKN050CB
      TEMPO 1013/1015 5SM SHRA BR SCT025 BKN050
     FM101500 24005KT P6SM VCTS BKN035CB
     FM110100 VRB03KT P6SM VCSH BKN040 OVC200
      AMD LTD TO CLD VIS AND WIND=

USA.gov is the U.S. government's official web portal to all federal, state and local government web resources and services.